• Join FlightAware (Why Join?)
  • Login
  • US Flag 
09:03AM EDT


 

Airport Tracker/Info


-or-


 

Live Flight TrackerFlight Track Log ✈ DAL3741 ✈ 26-Apr-2013 ✈ KMSP - KCWA

Flight Track Log - Related Links

Times and Time Zones

All times are in EDT time to prevent confusion due to time zone crossing. See the DAL3741 flight status page for this flight to view local times or setup timezone preferences in your user account.

Time Position Orientation Groundspeed Altitude Reporting Facility
EDT Latitude Longitude Course Direction KTS MPH feet Rate Location/Type
03:33PM 44.9333 -93.2333 69° East 185 213 2,700  Level Minneapolis TRACON
03:33PM 44.9522 -93.2222 23° Northeast 196 226 3,800 2,040 Climbing Minneapolis Center
03:34PM 45.0158 -93.1989 15° North 239 275 6,000 2,580 Climbing Minneapolis Center
03:35PM 45.0223 -92.6650 66° East  Level FlightAware Approximate
03:35PM 45.0561 -93.0767 65° Northeast 286 329 9,200  Level Minneapolis Center
03:36PM 45.0784 -92.4827 66° East  Level FlightAware Approximate
03:36PM 45.0933 -92.9603 66° East 327 376 11,000  Level Minneapolis Center
03:37PM 45.1232 -92.2965 69° East  Level FlightAware Approximate
03:37PM 45.1350 -92.8292 66° East 363 418 13,200  Level Minneapolis Center
03:38PM 45.1543 -92.1797 69° East  Level FlightAware Approximate
03:39PM 45.1778 -92.6928 66° East 378 435 15,400  Level Minneapolis Center
03:40PM 45.2217 -92.5517 66° East 392 451 17,000 720 Climbing Minneapolis Center
03:41PM 45.2481 -92.3717 78° East 398 458 17,000  Level Minneapolis Center
03:42PM 45.2242 -92.2192 102° East 398 458 17,000  Level Minneapolis Center
03:43PM 45.1986 -92.0675 103° East 397 457 17,000  Level Minneapolis Center
03:44PM 45.1739 -91.9178 103° East 394 453 17,000  Level Minneapolis Center
03:45PM 45.1475 -91.7681 104° East 392 451 17,000  Level Minneapolis Center
03:46PM 45.1111 -91.5528 103° East 410 472 17,000  Level Minneapolis Center
03:47PM 45.0858 -91.4044 104° East 406 467 17,000  Level Minneapolis Center
03:48PM 45.0597 -91.2436 103° East 403 464 17,000  Level Minneapolis Center
03:49PM 45.0306 -91.0833 104° East 402 463 17,000  Level Minneapolis Center
03:50PM 45.0033 -90.9244 104° East 399 459 17,000 -660 Level Minneapolis Center
03:51PM 44.9753 -90.7644 104° East 402 463 15,700 -1,620 Descending Minneapolis Center
03:52PM 44.9497 -90.6186 104° East 398 458 13,700 -1,980 Descending Minneapolis Center
03:53PM 44.9244 -90.4708 104° East 373 429 11,700 -1,620 Descending Minneapolis Center
03:54PM 44.9000 -90.3347 104° East 346 398 10,500 -1,260 Descending Minneapolis Center
03:55PM 44.8772 -90.2108 105° East 318 366 9,200 -1,440 Descending Minneapolis Center
03:56PM 44.8567 -90.0950 104° East 296 341 7,600 -1,440 Descending Minneapolis Center
03:57PM 44.8356 -89.9789 104° East 293 337 6,300 -1,260 Descending Minneapolis Center
03:58PM 44.8183 -89.8783 104° East 277 319 5,100 -1,260 Descending Minneapolis Center
03:59PM 44.8283 -89.7694 83° East 266 306 3,800 -1,080 Descending Minneapolis Center
04:00PM 44.8344 -89.6667 85° East 256 295 2,900 -900 Descending Minneapolis Center